GOBD Airport Information

Runway Information
Airport Frequencies
Airport Navaids
Airport Weather Information & NOTAM
ADDS - METARS form results

(0438 UTC 19 October 2021)
Data provider http://aviationweather.gov/metar/data/
 
METAR text: GOBD 190430Z 24003KT 4700 BR FEW008 25/25 Q1011 NOSIG
Conditions at: GOBD (DAKAR/DIAGNE , SN) observed 0430 UTC 19 October 2021
Temperature: 25.0°C (77°F)
Dewpoint: 25.0°C (77°F) [RH = 100%]
Pressure (altimeter): 29.85 inches Hg (1011.0 mb)
Winds: from the WSW (240 degrees) at 3 MPH (3 knots; 1.5 m/s)
Visibility: 2.92 miles (4.70 km)
Ceiling: at least 12,000 feet AGL
Clouds: few clouds at 800 feet AGL
Weather: BR  (mist)

METAR text: GOBD 190400Z 27002KT 4700 BR FEW008 26/25 Q1011 NOSIG
Conditions at: GOBD (DAKAR/DIAGNE , SN) observed 0400 UTC 19 October 2021
Temperature: 26.0°C (79°F)
Dewpoint: 25.0°C (77°F) [RH = 94%]
Pressure (altimeter): 29.85 inches Hg (1011.0 mb)
Winds: from the W (270 degrees) at 2 MPH (2 knots; 1.0 m/s)
Visibility: 2.92 miles (4.70 km)
Ceiling: at least 12,000 feet AGL
Clouds: few clouds at 800 feet AGL
Weather: BR  (mist)

Forecast for: GOBD (DAKAR/DIAGNE , SN)
Text: TAF GOBD 182300Z 1900/2006 28010KT 8000 NSC
Forecast period: 0000 UTC 19 October 2021 to 0600 UTC 20 October 2021
Forecast type: FROM: standard forecast or significant change
Winds: from the W (280 degrees) at 12 MPH (10 knots; 5.1 m/s)
Visibility: 5 miles (8 km)
Ceiling: unknown
Clouds: missing
Weather: no significant weather forecast for this period
Text: PROB40
Forecast period: 0300 to 0900 UTC 19 October 2021
Forecast type: TEMPORARY: The following changes expected for less than half the time period
Visibility: 1.86 miles (2.99 km)
Ceiling: 500 feet AGL
Clouds: broken clouds at 500 feet AGL
Weather: BR  (mist)